Welcome to Northern Hawkes Bay. New Zealand.
PWS Header
      nz Flag



Hit Counter


W3C Valid W3C Valid logo


    Wairoa

Select any of the Stations below to visit their websites.










Historic Data from Weather Underground
Select the location of interest below. Wairoa is the default. Please have patience, this Data is slow to load in.
Northern Hawkes Bay Historical Data
Daily Summary for March 5, 2017 Units:  English    Metric   Both
« Previous Day
Next Day »
Daily Weekly Monthly Yearly Custom
  High: Low: Average:
Temperature: 86.4 °F 55.2 °F 68 °F
Dew Point: 67.3 °F 54.3 °F 60.4 °F
Humidity: 99% 39% 80%
Wind Speed: 9.2mph 0mph 2.1mph
Wind Gust: 12.1mph - -
Wind- - West
Pressure: 30 in 29.8 in -
Precipitation: 0 in    
Historical Graphs
 
 
Tabular Data for March 5, 2017
Time Temperature Dew Point Pressure Wind Wind Speed Wind Gust Humidity Rainfall Rate (Hourly) solar
00:01 63.1 °F 58.3 °F 30 in Calm   0.7 mph 84% 0 in 0 W/m2
00:06 63.1 °F 58.6 °F 30 in Calm   2.2 mph 85% 0 in 0 W/m2
00:11 63 °F 58.6 °F 30 in Calm   2.2 mph 86% 0 in 0 W/m2
00:16 62.6 °F 58.5 °F 30 in Calm   2.2 mph 86% 0 in 0 W/m2
00:21 62.4 °F 58.5 °F 30 in WNW 1.6 mph 3.8 mph 87% 0 in 0 W/m2
00:26 62.4 °F 58.8 °F 30 in NW 0.7 mph 3.8 mph 88% 0 in 0 W/m2
00:31 62.1 °F 58.5 °F 30 in NNW 1.6 mph 3.8 mph 88% 0 in 0 W/m2
00:36 61.9 °F 58.3 °F 30 in Calm   3.8 mph 88% 0 in 0 W/m2
00:41 61.7 °F 58.1 °F 30 in Calm   3.1 mph 88% 0 in 0 W/m2
00:46 61.5 °F 57.9 °F 30 in NW 1.6 mph 2.2 mph 88% 0 in 0 W/m2
00:51 61.5 °F 58.6 °F 30 in NNW 0.7 mph 3.1 mph 90% 0 in 0 W/m2
00:56 61.3 °F 58.5 °F 30 in NNW 2.2 mph 3.8 mph 90% 0 in 0 W/m2
01:01 61.3 °F 58.6 °F 30 in North 0.7 mph 3.8 mph 91% 0 in 0 W/m2
01:06 61.2 °F 58.8 °F 30 in NNW 1.6 mph 3.8 mph 92% 0 in 0 W/m2
01:11 61 °F 58.6 °F 30 in Calm   3.1 mph 92% 0 in 0 W/m2
01:16 61 °F 58.6 °F 30 in NW 1.6 mph 3.8 mph 92% 0 in 0 W/m2
01:21 60.6 °F 58.6 °F 30 in NW 1.6 mph 3.8 mph 93% 0 in 0 W/m2
01:26 60.6 °F 58.6 °F 30 in Calm   3.8 mph 93% 0 in 0 W/m2
01:31 60.4 °F 58.6 °F 30 in NNW 2.2 mph 3.8 mph 94% 0 in 0 W/m2
01:51 60.3 °F 58.5 °F 30 in NNW 0.7 mph 3.8 mph 94% 0 in 0 W/m2
01:56 60.3 °F 58.5 °F 30 in North 2.2 mph 3.8 mph 94% 0 in 0 W/m2
02:15 59.7 °F 58.3 °F 30 in North 1.6 mph 3.1 mph 95% 0 in 0 W/m2
02:20 59.5 °F 58.1 °F 30 in North 0.7 mph 3.1 mph 95% 0 in 0 W/m2
02:25 59.4 °F 57.9 °F 30 in North 1.6 mph 3.1 mph 95% 0 in 0 W/m2
02:30 59.2 °F 57.7 °F 30 in NNW 3.1 mph 4.5 mph 95% 0 in 0 W/m2
02:35 59.2 °F 57.7 °F 30 in NNW 1.6 mph 4.5 mph 95% 0 in 0 W/m2
02:40 59.2 °F 57.7 °F 30 in NNW 1.6 mph 4.5 mph 95% 0 in 0 W/m2
02:45 59 °F 57.6 °F 30 in NNW 2.2 mph 4.5 mph 95% 0 in 0 W/m2
02:50 59 °F 57.6 °F 30 in NW 1.6 mph 4.5 mph 95% 0 in 0 W/m2
02:55 58.8 °F 57.9 °F 30 in NW 1.6 mph 4.5 mph 97% 0 in 0 W/m2
03:00 58.6 °F 57.7 °F 30 in NNW 2.2 mph 4.5 mph 97% 0 in 0 W/m2
03:05 58.5 °F 57.6 °F 30 in NNW 1.6 mph 5.4 mph 97% 0 in 0 W/m2
03:10 58.5 °F 57.6 °F 30 in NNW 2.2 mph 5.4 mph 97% 0 in 0 W/m2
03:15 58.5 °F 57.6 °F 30 in NNW 1.6 mph 4.5 mph 97% 0 in 0 W/m2
03:20 58.3 °F 57.7 °F 30 in NW 1.6 mph 3.8 mph 98% 0 in 0 W/m2
03:25 58.3 °F 57.7 °F 30 in NW 1.6 mph 3.8 mph 98% 0 in 0 W/m2
03:30 58.1 °F 57.6 °F 30 in NNW 1.6 mph 3.1 mph 98% 0 in 0 W/m2
03:35 57.9 °F 57.4 °F 30 in NNW 0.7 mph 3.1 mph 98% 0 in 0 W/m2
03:40 57.9 °F 57.4 °F 30 in NNW 1.6 mph 3.1 mph 98% 0 in 0 W/m2
03:45 57.7 °F 57.2 °F 30 in NNW 2.2 mph 3.1 mph 98% 0 in 0 W/m2
03:50 57.7 °F 57.2 °F 30 in NNW 1.6 mph 3.8 mph 98% 0 in 0 W/m2
03:55 57.7 °F 57.6 °F 30 in NNW 2.2 mph 4.5 mph 99% 0 in 0 W/m2
04:00 57.7 °F 57.6 °F 30 in NW 2.2 mph 5.4 mph 99% 0 in 0 W/m2
04:05 57.7 °F 57.6 °F 30 in NW 3.8 mph 5.4 mph 99% 0 in 0 W/m2
04:10 57.6 °F 57.4 °F 30 in NW 2.2 mph 5.4 mph 99% 0 in 0 W/m2
04:15 57.6 °F 57.4 °F 30 in NW 2.2 mph 5.4 mph 99% 0 in 0 W/m2
04:20 57.2 °F 56.8 °F 30 in NW 2.2 mph 5.4 mph 99% 0 in 0 W/m2
04:25 57.2 °F 56.8 °F 30 in NW 3.1 mph 5.4 mph 99% 0 in 0 W/m2
04:30 57.2 °F 56.8 °F 30 in NNW 3.8 mph 5.4 mph 99% 0 in 0 W/m2
04:35 57.2 °F 56.8 °F 30 in NNW 2.2 mph 5.4 mph 99% 0 in 0 W/m2
04:40 57 °F 56.8 °F 30 in NNW 2.2 mph 5.4 mph 99% 0 in 0 W/m2
04:45 56.8 °F 56.7 °F 30 in NW 2.2 mph 3.8 mph 99% 0 in 0 W/m2
04:50 56.8 °F 56.7 °F 30 in NW 1.6 mph 5.4 mph 99% 0 in 0 W/m2
04:55 56.7 °F 56.5 °F 30 in NW 2.2 mph 5.4 mph 99% 0 in 0 W/m2
05:00 56.7 °F 56.5 °F 30 in NW 1.6 mph 3.8 mph 99% 0 in 0 W/m2
05:05 56.5 °F 56.1 °F 30 in NNW 1.6 mph 3.8 mph 99% 0 in 0 W/m2
05:10 56.5 °F 56.1 °F 30 in Calm   3.8 mph 99% 0 in 0 W/m2
05:15 56.3 °F 55.9 °F 30 in NNW 1.6 mph 4.5 mph 99% 0 in 0 W/m2
05:20 56.3 °F 55.9 °F 30 in NNW 1.6 mph 4.5 mph 99% 0 in 0 W/m2
05:25 56.3 °F 55.9 °F 30 in NNW 2.2 mph 3.8 mph 99% 0 in 0 W/m2
05:30 56.1 °F 55.9 °F 30 in NW 1.6 mph 3.8 mph 99% 0 in 0 W/m2
05:35 56.1 °F 55.9 °F 29.9 in NW 1.6 mph 3.8 mph 99% 0 in 0 W/m2
05:40 55.9 °F 55.8 °F 30 in NW 1.6 mph 3.8 mph 99% 0 in 0 W/m2
05:45 55.9 °F 55.8 °F 30 in WNW 0.7 mph 3.8 mph 99% 0 in 0 W/m2
05:50 55.9 °F 55.8 °F 30 in NW 3.1 mph 5.4 mph 99% 0 in 0 W/m2
05:55 55.8 °F 55.6 °F 30 in NNW 3.1 mph 5.4 mph 99% 0 in 0 W/m2
06:00 55.8 °F 55.6 °F 30 in NNW 2.2 mph 4.5 mph 99% 0 in 0 W/m2
06:05 55.8 °F 55.6 °F 30 in NNW 3.8 mph 5.4 mph 99% 0 in 0 W/m2
06:10 55.8 °F 55.6 °F 29.9 in NNW 2.2 mph 5.4 mph 99% 0 in 0 W/m2
06:15 55.8 °F 55.6 °F 29.9 in NW 1.6 mph 5.4 mph 99% 0 in 0 W/m2
06:20 55.6 °F 55.2 °F 29.9 in NNW 0.7 mph 5.4 mph 99% 0 in 0 W/m2
06:25 55.6 °F 55.2 °F 30 in NNW 1.6 mph 5.4 mph 99% 0 in 0 W/m2
06:30 55.6 °F 55.2 °F 29.9 in NNW 2.2 mph 5.4 mph 99% 0 in 0 W/m2
06:35 55.6 °F 55.2 °F 30 in NNW 2.2 mph 5.4 mph 99% 0 in 0 W/m2
06:40 55.6 °F 55.2 °F 29.9 in NNW 2.2 mph 4.5 mph 99% 0 in 0 W/m2
06:57 55.4 °F 55 °F 30 in NW 3.1 mph 5.4 mph 99% 0 in 3 W/m2
07:02 55.4 °F 55 °F 29.9 in NNW 2.2 mph 5.4 mph 99% 0 in 5 W/m2
07:07 55.4 °F 55 °F 30 in NNW 3.1 mph 5.4 mph 99% 0 in 9 W/m2
07:12 55.4 °F 55 °F 30 in NW 3.1 mph 5.4 mph 99% 0 in 12 W/m2
07:17 55.2 °F 54.3 °F 30 in NNW 1.6 mph 4.5 mph 97% 0 in 17 W/m2
07:22 55.2 °F 54.3 °F 29.9 in NNW 2.2 mph 4.5 mph 97% 0 in 45 W/m2
07:27 55.8 °F 55.6 °F 29.9 in NNW 2.2 mph 4.5 mph 99% 0 in 63 W/m2
07:32 56.1 °F 55.9 °F 30 in NNW 3.8 mph 6 mph 99% 0 in 79 W/m2
07:37 56.5 °F 56.1 °F 29.9 in NNW 3.8 mph 6 mph 99% 0 in 93 W/m2
07:42 57 °F 56.8 °F 29.9 in NNW 4.5 mph 6 mph 99% 0 in 106 W/m2
07:47 57.4 °F 57 °F 30 in NW 3.8 mph 7.6 mph 99% 0 in 119 W/m2
07:52 57.7 °F 57.2 °F 30 in NW 3.8 mph 7.6 mph 98% 0 in 130 W/m2
07:57 58.5 °F 57.6 °F 29.9 in NNW 4.5 mph 6.9 mph 97% 0 in 145 W/m2
08:02 58.8 °F 57.7 °F 30 in NNW 3.8 mph 6.9 mph 96% 0 in 159 W/m2
08:07 59.2 °F 57.2 °F 30 in NNW 2.2 mph 6.9 mph 93% 0 in 176 W/m2
08:12 59.7 °F 57 °F 30 in NNW 3.1 mph 8.3 mph 91% 0 in 189 W/m2
08:17 60.3 °F 57.4 °F 30 in NNW 3.8 mph 8.3 mph 90% 0 in 204 W/m2
08:22 60.4 °F 56.8 °F 29.9 in NNW 3.8 mph 7.6 mph 88% 0 in 212 W/m2
08:27 61.2 °F 57 °F 29.9 in NW 2.2 mph 7.6 mph 86% 0 in 212 W/m2
08:32 61.3 °F 56.8 °F 29.9 in NW 2.2 mph 7.6 mph 85% 0 in 218 W/m2
08:37 61.7 °F 57.2 °F 29.9 in NW 4.5 mph 7.6 mph 85% 0 in 221 W/m2
08:42 62.1 °F 57.2 °F 29.9 in NW 5.4 mph 6.9 mph 84% 0 in 228 W/m2
08:47 62.1 °F 56.8 °F 29.9 in NW 3.8 mph 8.3 mph 83% 0 in 237 W/m2
08:52 62.6 °F 57 °F 29.9 in NNW 3.8 mph 8.3 mph 82% 0 in 247 W/m2
08:57 63.1 °F 57.6 °F 30 in NNW 3.1 mph 7.6 mph 82% 0 in 256 W/m2
09:02 64 °F 58.5 °F 29.9 in NW 4.5 mph 7.6 mph 82% 0 in 268 W/m2
09:07 64.6 °F 58.3 °F 30 in NNW 4.5 mph 6 mph 80% 0 in 277 W/m2
09:12 65.3 °F 59.4 °F 30 in NNW 3.8 mph 6 mph 81% 0 in 287 W/m2
09:17 64.9 °F 58.3 °F 29.9 in NW 3.8 mph 7.6 mph 79% 0 in 294 W/m2
09:22 65.3 °F 58.6 °F 29.9 in NW 3.8 mph 7.6 mph 79% 0 in 304 W/m2
09:27 66 °F 59.4 °F 29.9 in NNW 3.1 mph 6.9 mph 79% 0 in 315 W/m2
09:32 66.6 °F 59.2 °F 29.9 in NNW 4.5 mph 6.9 mph 77% 0 in 331 W/m2
09:37 66.6 °F 58.5 °F 29.9 in North 1.6 mph 7.6 mph 75% 0 in 345 W/m2
09:42 68 °F 60.3 °F 29.9 in North 1.6 mph 7.6 mph 76% 0 in 359 W/m2
09:47 68.9 °F 60.3 °F 29.9 in North 1.6 mph 6 mph 74% 0 in 374 W/m2
09:52 70.5 °F 61.2 °F 29.9 in NNW 3.1 mph 6 mph 72% 0 in 389 W/m2
09:57 71.1 °F 60.4 °F 29.9 in North 2.2 mph 6 mph 69% 0 in 402 W/m2
10:02 71.4 °F 60.6 °F 29.9 in NNW 2.2 mph 6 mph 69% 0 in 414 W/m2
10:07 71.4 °F 61.2 °F 29.9 in NW 1.6 mph 5.4 mph 70% 0 in 426 W/m2
10:12 72 °F 61 °F 29.9 in NW 2.2 mph 8.3 mph 68% 0 in 436 W/m2
10:17 72 °F 61 °F 29.9 in Calm   8.3 mph 68% 0 in 451 W/m2
10:22 73.8 °F 62.6 °F 29.9 in NW 2.2 mph 5.4 mph 68% 0 in 435 W/m2
10:27 74.3 °F 62.2 °F 29.9 in Calm   4.5 mph 66% 0 in 479 W/m2
10:30 74.8 °F 62.8 °F 29.9 in West 0.7 mph 4.5 mph 66% 0 in 492 W/m2
10:35 74.8 °F 60.4 °F 29.9 in NNW 1.6 mph 6.9 mph 61% 0 in 81 W/m2
10:40 73.6 °F 60.3 °F 29.9 in NNW 3.8 mph 6.9 mph 63% 0 in 100 W/m2
10:45 74.5 °F 60.3 °F 29.9 in North 0.7 mph 5.4 mph 61% 0 in 73 W/m2
10:50 74.8 °F 60.1 °F 29.9 in North 0.7 mph 5.4 mph 60% 0 in 524 W/m2
10:55 74.1 °F 60.3 °F 29.9 in NNW 4.5 mph 6.9 mph 62% 0 in 88 W/m2
11:00 73.8 °F 59.5 °F 29.9 in NNW 3.1 mph 6.9 mph 61% 0 in 547 W/m2
11:05 74.8 °F 59.2 °F 29.9 in North 2.2 mph 6 mph 58% 0 in 568 W/m2
11:10 75.6 °F 59.4 °F 29.9 in NNE 2.2 mph 6 mph 57% 0 in 168 W/m2
11:15 74.8 °F 58.1 °F 29.9 in Calm   6 mph 56% 0 in 595 W/m2
11:20 75.4 °F 58.6 °F 29.9 in North 4.5 mph 6.9 mph 56% 0 in 613 W/m2
11:25 75.6 °F 58.8 °F 29.9 in NNW 3.1 mph 7.6 mph 56% 0 in 633 W/m2
11:30 74.5 °F 58.8 °F 29.9 in North 6 mph 9.8 mph 58% 0 in 640 W/m2
11:35 75 °F 58.8 °F 29.9 in NNE 3.8 mph 9.8 mph 57% 0 in 652 W/m2
11:40 74.8 °F 58.6 °F 29.9 in NNE 3.8 mph 9.8 mph 57% 0 in 674 W/m2
11:45 75 °F 58.8 °F 29.9 in NNW 5.4 mph 8.3 mph 57% 0 in 695 W/m2
11:50 75.2 °F 58.5 °F 29.9 in NNW 1.6 mph 8.3 mph 56% 0 in 709 W/m2
11:55 76.3 °F 59 °F 29.9 in North 4.5 mph 8.3 mph 55% 0 in 720 W/m2
12:00 77 °F 58.1 °F 29.9 in NNE 6.9 mph 7.6 mph 52% 0 in 408 W/m2
12:05 77 °F 58.1 °F 29.9 in NE 2.2 mph 9.8 mph 52% 0 in 590 W/m2
12:10 77 °F 57.6 °F 29.9 in NE 3.8 mph 9.8 mph 51% 0 in 754 W/m2
12:15 77.2 °F 57.7 °F 29.9 in North 3.8 mph 9.2 mph 51% 0 in 770 W/m2
12:20 78.3 °F 58.1 °F 29.9 in NNE 3.1 mph 7.6 mph 50% 0 in 791 W/m2
12:23 78.4 °F 57.2 °F 29.9 in NNE 3.1 mph 7.6 mph 48% 0 in 791 W/m2
12:28 79 °F 57.7 °F 29.9 in NNE 3.1 mph 6.9 mph 48% 0 in 808 W/m2
12:33 79.9 °F 60.6 °F 29.9 in ENE 4.5 mph 6 mph 52% 0 in 822 W/m2
12:38 79.9 °F 59.5 °F 29.9 in ESE 3.8 mph 6.9 mph 50% 0 in 833 W/m2
12:43 79.3 °F 61.9 °F 29.9 in Calm   7.6 mph 55% 0 in 357 W/m2
12:48 79.3 °F 62.8 °F 29.9 in SE 2.2 mph 7.6 mph 57% 0 in 853 W/m2
12:49 79.2 °F 63.1 °F 29.9 in SE 3.1 mph 6.9 mph 58% 0 in 856 W/m2
12:54 78.1 °F 60.6 °F 29.9 in SE 2.2 mph 7.6 mph 55% 0 in 867 W/m2
12:59 77.2 °F 62.8 °F 29.9 in SSE 4.5 mph 8.3 mph 61% 0 in 873 W/m2
13:04 77.2 °F 63.7 °F 29.9 in SSE 3.1 mph 8.3 mph 63% 0 in 883 W/m2
13:09 78.1 °F 64.6 °F 29.9 in SSE 5.4 mph 7.6 mph 63% 0 in 896 W/m2
13:15 78.4 °F 63.9 °F 29.9 in SE 3.1 mph 6 mph 61% 0 in 905 W/m2
13:20 77.9 °F 64.8 °F 29.9 in SE 4.5 mph 9.8 mph 64% 0 in 903 W/m2
13:25 77 °F 64.4 °F 29.9 in SSE 3.1 mph 10.7 mph 65% 0 in 901 W/m2
13:30 76.8 °F 65.1 °F 29.9 in SSE 6 mph 10.7 mph 67% 0 in 904 W/m2
13:35 77 °F 64.8 °F 29.9 in SSE 4.5 mph 9.8 mph 66% 0 in 900 W/m2
13:40 77.2 °F 64.9 °F 29.9 in SSE 7.6 mph 9.8 mph 66% 0 in 900 W/m2
13:41 77 °F 64.8 °F 29.9 in SSE 5.4 mph 9.8 mph 66% 0 in 898 W/m2
13:46 76.8 °F 65.1 °F 29.9 in SSE 6 mph 9.8 mph 67% 0 in 892 W/m2
13:51 77 °F 64.8 °F 29.9 in SSE 3.1 mph 9.2 mph 66% 0 in 890 W/m2
13:56 78.6 °F 65.8 °F 29.9 in SSE 3.1 mph 9.2 mph 65% 0 in 895 W/m2
14:01 80.1 °F 64.9 °F 29.9 in SSE 4.5 mph 6.9 mph 60% 0 in 893 W/m2
14:06 79.5 °F 64.6 °F 29.9 in South 5.4 mph 7.6 mph 60% 0 in 857 W/m2
14:11 78.6 °F 64.9 °F 29.9 in South 3.8 mph 8.3 mph 63% 0 in 878 W/m2
14:16 78.6 °F 64.9 °F 29.9 in Calm   8.3 mph 63% 0 in 860 W/m2
14:21 79.5 °F 64.6 °F 29.8 in SSE 2.2 mph 8.3 mph 60% 0 in 845 W/m2
14:26 80.1 °F 64.6 °F 29.9 in SSE 3.8 mph 6.9 mph 59% 0 in 847 W/m2
14:31 78.6 °F 64.9 °F 29.9 in South 1.6 mph 9.8 mph 63% 0 in 815 W/m2
14:36 79.7 °F 65.7 °F 29.8 in South 4.5 mph 9.8 mph 62% 0 in 827 W/m2
14:41 80.1 °F 65.5 °F 29.8 in SSE 1.6 mph 7.6 mph 61% 0 in 816 W/m2
14:46 81.7 °F 64.9 °F 29.8 in SSE 0.7 mph 6.9 mph 57% 0 in 700 W/m2
14:51 81.7 °F 64.6 °F 29.8 in Calm   8.3 mph 56% 0 in 120 W/m2
14:56 81 °F 63.3 °F 29.8 in Calm   8.3 mph 55% 0 in 741 W/m2
15:01 80.4 °F 62.8 °F 29.8 in South 0.7 mph 6.9 mph 55% 0 in 691 W/m2
15:06 79.9 °F 62.8 °F 29.8 in SSE 3.1 mph 6.9 mph 56% 0 in 663 W/m2
15:10 79.7 °F 63.1 °F 29.8 in South 2.2 mph 6.9 mph 57% 0 in 723 W/m2
15:15 80.1 °F 63 °F 29.8 in SSE 3.8 mph 12.1 mph 56% 0 in 739 W/m2
15:20 80.2 °F 62.1 °F 29.8 in Calm   12.1 mph 54% 0 in 519 W/m2
15:25 81 °F 61.2 °F 29.8 in Calm   6 mph 51% 0 in 424 W/m2
15:30 80.1 °F 61.3 °F 29.8 in Calm   1.6 mph 53% 0 in 305 W/m2
15:35 79.5 °F 62.1 °F 29.8 in Calm   1.6 mph 55% 0 in 364 W/m2
15:40 80.1 °F 61 °F 29.8 in Calm   2.2 mph 52% 0 in 494 W/m2
15:45 80.1 °F 61 °F 29.8 in Calm   2.2 mph 52% 0 in 374 W/m2
15:50 79.7 °F 61.2 °F 29.8 in Calm   0.7 mph 53% 0 in 298 W/m2
15:55 80.2 °F 61.5 °F 29.8 in Calm   0.7 mph 53% 0 in 456 W/m2
16:00 82.2 °F 61.9 °F 29.8 in Calm   0.7 mph 50% 0 in 480 W/m2
16:05 83.3 °F 61.5 °F 29.8 in Calm     48% 0 in 447 W/m2
16:10 84 °F 61.7 °F 29.8 in Calm     47% 0 in 486 W/m2
16:15 83.8 °F 61 °F 29.8 in Calm   1.6 mph 46% 0 in 511 W/m2
16:20 84 °F 59.2 °F 29.8 in Calm   3.8 mph 43% 0 in 169 W/m2
16:25 84.2 °F 57.4 °F 29.8 in Calm   3.8 mph 40% 0 in 211 W/m2
16:30 84.7 °F 59.2 °F 29.8 in Calm   3.8 mph 42% 0 in 463 W/m2
16:35 85.3 °F 59 °F 29.8 in Calm   0.7 mph 41% 0 in 523 W/m2
16:40 86.4 °F 59.2 °F 29.8 in Calm   0.7 mph 40% 0 in 446 W/m2
16:45 86 °F 58.3 °F 29.8 in Calm     39% 0 in 412 W/m2
16:50 85.6 °F 57.9 °F 29.8 in Calm     39% 0 in 287 W/m2
16:55 85.1 °F 57.4 °F 29.8 in Calm     39% 0 in 305 W/m2
17:00 83.8 °F 57 °F 29.8 in Calm     40% 0 in 209 W/m2
17:05 83.3 °F 57.2 °F 29.8 in Calm     41% 0 in 226 W/m2
17:10 82.6 °F 57.9 °F 29.8 in Calm     43% 0 in 311 W/m2
17:15 83.3 °F 58.5 °F 29.8 in Calm     43% 0 in 357 W/m2
17:20 84.7 °F 57.7 °F 29.8 in Calm     40% 0 in 381 W/m2
17:25 85.3 °F 57.6 °F 29.8 in Calm     39% 0 in 357 W/m2
17:30 84.7 °F 57.7 °F 29.8 in Calm     40% 0 in 341 W/m2
17:35 84.2 °F 62.4 °F 29.8 in South 3.1 mph 6.9 mph 48% 0 in 294 W/m2
17:40 80.4 °F 64.8 °F 29.8 in SSW 5.4 mph 9.8 mph 59% 0 in 269 W/m2
17:45 79 °F 64.9 °F 29.8 in SSW 4.5 mph 9.8 mph 62% 0 in 240 W/m2
17:50 77.9 °F 66.6 °F 29.8 in SSW 9.2 mph 12.1 mph 68% 0 in 176 W/m2
17:55 75.9 °F 67.1 °F 29.8 in SSW 6.9 mph 12.1 mph 74% 0 in 103 W/m2
18:00 73.8 °F 66.6 °F 29.8 in SSW 5.4 mph 12.1 mph 78% 0 in 134 W/m2
18:05 73.2 °F 66.7 °F 29.8 in SSW 1.6 mph 10.7 mph 80% 0 in 89 W/m2
18:10 72.9 °F 66.7 °F 29.8 in SSW 5.4 mph 8.3 mph 81% 0 in 96 W/m2
18:15 72.5 °F 66.7 °F 29.9 in SW 5.4 mph 9.2 mph 82% 0 in 95 W/m2
18:20 72.3 °F 66.9 °F 29.9 in SW 3.8 mph 9.2 mph 83% 0 in 100 W/m2
18:25 72.7 °F 67.3 °F 29.9 in SSW 6 mph 9.2 mph 83% 0 in 108 W/m2
18:30 72.7 °F 66.9 °F 29.9 in South 3.1 mph 9.2 mph 82% 0 in 106 W/m2
18:35 73 °F 66.9 °F 29.9 in SSW 4.5 mph 8.3 mph 81% 0 in 125 W/m2
18:40 72.7 °F 66.2 °F 29.9 in SSW 7.6 mph 10.7 mph 80% 0 in 113 W/m2
18:45 72.5 °F 66.4 °F 29.9 in South 4.5 mph 10.7 mph 81% 0 in 95 W/m2
18:50 72 °F 65.8 °F 29.9 in South 6 mph 10.7 mph 81% 0 in 82 W/m2
18:55 71.6 °F 66.2 °F 29.9 in South 3.8 mph 9.2 mph 83% 0 in 72 W/m2
19:00 71.8 °F 66 °F 29.9 in SSW 6.9 mph 8.3 mph 82% 0 in 65 W/m2
19:05 71.4 °F 66 °F 29.9 in SSW 3.1 mph 8.3 mph 83% 0 in 54 W/m2
19:10 71.2 °F 66.2 °F 29.9 in SSW 2.2 mph 8.3 mph 84% 0 in 42 W/m2
19:15 71.6 °F 66.6 °F 29.9 in SSW 3.1 mph 5.4 mph 84% 0 in 30 W/m2
19:20 70.5 °F 65.8 °F 29.9 in SW 3.1 mph 5.4 mph 85% 0 in 23 W/m2
19:25 70.2 °F 65.5 °F 29.9 in SSW 1.6 mph 5.4 mph 85% 0 in 19 W/m2
19:30 70 °F 65.7 °F 29.9 in SSW 2.2 mph 4.5 mph 86% 0 in 15 W/m2
19:35 69.8 °F 65.8 °F 29.9 in SSW 0.7 mph 4.5 mph 87% 0 in 13 W/m2
19:40 69.6 °F 65.7 °F 29.9 in SSW 1.6 mph 4.5 mph 87% 0 in 7 W/m2
19:45 69.3 °F 65.7 °F 29.9 in Calm   3.1 mph 88% 0 in 4 W/m2
19:50 68.9 °F 65.1 °F 29.9 in Calm   3.1 mph 88% 0 in 1 W/m2
19:55 68.2 °F 64.6 °F 29.9 in Calm     88% 0 in 0 W/m2
20:00 68.2 °F 64.8 °F 29.9 in Calm     89% 0 in 0 W/m2
20:05 68 °F 64.9 °F 29.9 in Calm     90% 0 in 0 W/m2
20:10 67.8 °F 65.1 °F 29.9 in Calm     91% 0 in 0 W/m2
20:15 67.6 °F 64.9 °F 29.9 in Calm     91% 0 in 0 W/m2
20:20 67.3 °F 64.6 °F 29.9 in Calm   3.1 mph 91% 0 in 0 W/m2
20:25 67.1 °F 64.8 °F 29.9 in Calm   3.1 mph 92% 0 in 0 W/m2
20:30 66.9 °F 64.9 °F 29.9 in SW 0.7 mph 3.1 mph 93% 0 in 0 W/m2
20:35 66.4 °F 64.2 °F 29.9 in WSW 0.7 mph 3.1 mph 93% 0 in 0 W/m2
20:40 66.9 °F 65.1 °F 29.9 in SW 0.7 mph 3.1 mph 94% 0 in 0 W/m2
20:45 66.7 °F 64.9 °F 29.9 in Calm   3.1 mph 94% 0 in 0 W/m2
20:50 66.6 °F 64.8 °F 29.9 in Calm   3.1 mph 94% 0 in 0 W/m2
20:55 66.4 °F 64.6 °F 29.9 in Calm   1.6 mph 94% 0 in 0 W/m2
21:00 66 °F 64.6 °F 29.9 in Calm   1.6 mph 95% 0 in 0 W/m2
21:05 66 °F 64.6 °F 29.9 in Calm     95% 0 in 0 W/m2
21:10 66 °F 64.6 °F 29.9 in Calm     95% 0 in 0 W/m2
21:15 65.7 °F 64.2 °F 29.9 in Calm     95% 0 in 0 W/m2
21:20 65.8 °F 64.4 °F 29.9 in Calm     95% 0 in 0 W/m2
21:25 65.7 °F 64.2 °F 29.9 in Calm     95% 0 in 0 W/m2
21:30 65.5 °F 64 °F 29.9 in NW 0.7 mph 1.6 mph 95% 0 in 0 W/m2
21:35 65.1 °F 63.7 °F 29.9 in Calm   1.6 mph 95% 0 in 0 W/m2
21:40 65.3 °F 64.2 °F 29.9 in Calm   1.6 mph 96% 0 in 0 W/m2
21:45 64.9 °F 63.9 °F 29.9 in Calm     96% 0 in 0 W/m2
21:50 64.8 °F 63.7 °F 29.9 in Calm     96% 0 in 0 W/m2
21:55 64.4 °F 63.3 °F 29.9 in Calm     96% 0 in 0 W/m2
22:00 64.4 °F 63.3 °F 29.9 in Calm   1.6 mph 96% 0 in 0 W/m2
22:05 64.2 °F 62.8 °F 29.9 in Calm   3.1 mph 95% 0 in 0 W/m2
22:10 64.2 °F 62.8 °F 29.9 in North 0.7 mph 3.1 mph 95% 0 in 0 W/m2
22:15 63.5 °F 62.1 °F 29.9 in Calm   3.8 mph 95% 0 in 0 W/m2
22:20 63.9 °F 62.4 °F 29.9 in Calm   3.8 mph 95% 0 in 0 W/m2
22:25 63.7 °F 62.2 °F 29.9 in Calm   1.6 mph 95% 0 in 0 W/m2
22:30 63.3 °F 61.5 °F 29.9 in Calm     94% 0 in 0 W/m2
22:35 63.1 °F 61.3 °F 29.9 in Calm   0.7 mph 94% 0 in 0 W/m2
22:40 63 °F 61.2 °F 29.9 in Calm   1.6 mph 94% 0 in 0 W/m2
22:45 62.8 °F 61 °F 29.9 in NW 0.7 mph 3.1 mph 94% 0 in 0 W/m2
22:50 62.6 °F 61 °F 29.9 in NNW 0.7 mph 3.1 mph 94% 0 in 0 W/m2
22:55 62.4 °F 61 °F 29.9 in Calm   2.2 mph 95% 0 in 0 W/m2
23:00 62.2 °F 60.8 °F 29.9 in North 0.7 mph 2.2 mph 95% 0 in 0 W/m2
23:05 62.1 °F 61 °F 29.9 in North 0.7 mph 2.2 mph 96% 0 in 0 W/m2
23:10 62.1 °F 61 °F 29.9 in North 2.2 mph 4.5 mph 96% 0 in 0 W/m2
23:15 62.2 °F 61.2 °F 29.9 in North 2.2 mph 4.5 mph 96% 0 in 0 W/m2
23:20 62.1 °F 61.2 °F 29.9 in North 1.6 mph 4.5 mph 97% 0 in 0 W/m2
23:25 61.9 °F 61 °F 29.9 in NNW 2.2 mph 4.5 mph 97% 0 in 0 W/m2
23:30 61.9 °F 61 °F 29.9 in NNW 0.7 mph 4.5 mph 97% 0 in 0 W/m2
23:35 61.7 °F 61 °F 29.9 in NNW 2.2 mph 4.5 mph 97% 0 in 0 W/m2
23:40 61.7 °F 61 °F 29.9 in NNW 2.2 mph 4.5 mph 97% 0 in 0 W/m2
23:45 61.7 °F 61 °F 29.9 in NNW 3.8 mph 4.5 mph 97% 0 in 0 W/m2
23:50 61.5 °F 60.6 °F 29.9 in NNW 3.1 mph 6 mph 97% 0 in 0 W/m2
23:55 61.7 °F 61 °F 29.9 in NNW 3.8 mph 6 mph 97% 0 in 0 W/m2
Northern Hawkes Bay. New Zealand Historic Data
Compliments of Weather Underground - 2 mb